sensor_id;sensor_type;location;lat;lon;timestamp;P1;durP1;ratioP1;P2;durP2;ratioP2
44145;SDS011;29809;52.432;4.780;2023-02-10T00:02:20;5.15;;;1.75;;
44145;SDS011;29809;52.432;4.780;2023-02-10T00:04:46;4.07;;;1.73;;
44145;SDS011;29809;52.432;4.780;2023-02-10T00:07:11;3.70;;;1.50;;
44145;SDS011;29809;52.432;4.780;2023-02-10T00:09:36;5.35;;;1.73;;
44145;SDS011;29809;52.432;4.780;2023-02-10T00:12:02;2.85;;;1.75;;
44145;SDS011;29809;52.432;4.780;2023-02-10T00:14:27;2.80;;;1.80;;
44145;SDS011;29809;52.432;4.780;2023-02-10T00:16:53;3.13;;;1.30;;
44145;SDS011;29809;52.432;4.780;2023-02-10T00:19:20;3.22;;;1.65;;
44145;SDS011;29809;52.432;4.780;2023-02-10T00:21:45;3.35;;;1.63;;
44145;SDS011;29809;52.432;4.780;2023-02-10T00:24:10;4.00;;;1.67;;
44145;SDS011;29809;52.432;4.780;2023-02-10T00:26:36;4.40;;;1.67;;
44145;SDS011;29809;52.432;4.780;2023-02-10T00:29:01;3.33;;;1.65;;
44145;SDS011;29809;52.432;4.780;2023-02-10T00:31:27;2.97;;;1.75;;
44145;SDS011;29809;52.432;4.780;2023-02-10T00:33:52;4.47;;;1.90;;
44145;SDS011;29809;52.432;4.780;2023-02-10T00:36:17;3.72;;;1.60;;
44145;SDS011;29809;52.432;4.780;2023-02-10T00:38:43;3.75;;;1.60;;
44145;SDS011;29809;52.432;4.780;2023-02-10T00:41:09;3.90;;;1.83;;
44145;SDS011;29809;52.432;4.780;2023-02-10T00:43:35;3.13;;;1.60;;
44145;SDS011;29809;52.432;4.780;2023-02-10T00:46:01;4.80;;;2.00;;
44145;SDS011;29809;52.432;4.780;2023-02-10T00:48:26;2.03;;;1.35;;
44145;SDS011;29809;52.432;4.780;2023-02-10T00:50:51;2.97;;;1.65;;
44145;SDS011;29809;52.432;4.780;2023-02-10T00:53:17;4.28;;;1.55;;
44145;SDS011;29809;52.432;4.780;2023-02-10T00:55:42;3.13;;;1.48;;
44145;SDS011;29809;52.432;4.780;2023-02-10T00:58:07;3.42;;;1.50;;
44145;SDS011;29809;52.432;4.780;2023-02-10T01:00:32;3.92;;;1.60;;
44145;SDS011;29809;52.432;4.780;2023-02-10T01:02:58;2.88;;;1.40;;
44145;SDS011;29809;52.432;4.780;2023-02-10T01:05:23;5.40;;;1.45;;
44145;SDS011;29809;52.432;4.780;2023-02-10T01:07:48;3.45;;;1.88;;
44145;SDS011;29809;52.432;4.780;2023-02-10T01:10:13;3.05;;;1.63;;
44145;SDS011;29809;52.432;4.780;2023-02-10T01:12:39;5.40;;;1.83;;
44145;SDS011;29809;52.432;4.780;2023-02-10T01:15:04;3.60;;;1.60;;
44145;SDS011;29809;52.432;4.780;2023-02-10T01:17:29;1.83;;;1.30;;
44145;SDS011;29809;52.432;4.780;2023-02-10T01:19:54;4.20;;;1.60;;
44145;SDS011;29809;52.432;4.780;2023-02-10T01:22:20;4.07;;;1.17;;
44145;SDS011;29809;52.432;4.780;2023-02-10T01:24:46;1.63;;;1.40;;
44145;SDS011;29809;52.432;4.780;2023-02-10T01:27:11;4.77;;;1.70;;
44145;SDS011;29809;52.432;4.780;2023-02-10T01:29:36;3.10;;;1.40;;
44145;SDS011;29809;52.432;4.780;2023-02-10T01:32:01;4.13;;;1.67;;
44145;SDS011;29809;52.432;4.780;2023-02-10T01:34:27;3.80;;;1.50;;
44145;SDS011;29809;52.432;4.780;2023-02-10T01:36:52;3.97;;;1.85;;
44145;SDS011;29809;52.432;4.780;2023-02-10T01:39:17;3.13;;;1.50;;
44145;SDS011;29809;52.432;4.780;2023-02-10T01:41:42;3.22;;;1.60;;
44145;SDS011;29809;52.432;4.780;2023-02-10T01:46:45;2.33;;;1.30;;
44145;SDS011;29809;52.432;4.780;2023-02-10T01:49:12;3.88;;;1.20;;
44145;SDS011;29809;52.432;4.780;2023-02-10T01:54:38;1.87;;;1.50;;
44145;SDS011;29809;52.432;4.780;2023-02-10T01:57:04;1.63;;;1.33;;
44145;SDS011;29809;52.432;4.780;2023-02-10T01:59:31;3.03;;;1.33;;
44145;SDS011;29809;52.432;4.780;2023-02-10T02:01:57;3.07;;;1.73;;
44145;SDS011;29809;52.432;4.780;2023-02-10T02:04:24;4.68;;;1.50;;
44145;SDS011;29809;52.432;4.780;2023-02-10T02:06:49;4.65;;;1.75;;
44145;SDS011;29809;52.432;4.780;2023-02-10T02:09:15;3.03;;;1.37;;
44145;SDS011;29809;52.432;4.780;2023-02-10T02:11:52;4.97;;;1.50;;
44145;SDS011;29809;52.432;4.780;2023-02-10T02:14:28;2.37;;;1.20;;
44145;SDS011;29809;52.432;4.780;2023-02-10T02:17:00;4.03;;;1.80;;
44145;SDS011;29809;52.432;4.780;2023-02-10T02:22:03;1.93;;;1.10;;
44145;SDS011;29809;52.432;4.780;2023-02-10T02:27:23;3.80;;;1.40;;
44145;SDS011;29809;52.432;4.780;2023-02-10T02:32:44;3.83;;;1.17;;
44145;SDS011;29809;52.432;4.780;2023-02-10T02:35:17;1.57;;;1.10;;
44145;SDS011;29809;52.432;4.780;2023-02-10T02:37:44;1.60;;;1.00;;
44145;SDS011;29809;52.432;4.780;2023-02-10T02:40:12;2.40;;;1.00;;
44145;SDS011;29809;52.432;4.780;2023-02-10T02:42:38;4.53;;;2.07;;
44145;SDS011;29809;52.432;4.780;2023-02-10T02:45:17;3.15;;;1.50;;
44145;SDS011;29809;52.432;4.780;2023-02-10T02:57:57;3.53;;;1.37;;
44145;SDS011;29809;52.432;4.780;2023-02-10T03:00:24;2.50;;;1.40;;
44145;SDS011;29809;52.432;4.780;2023-02-10T03:02:51;1.88;;;1.30;;
44145;SDS011;29809;52.432;4.780;2023-02-10T03:05:22;2.63;;;1.10;;
44145;SDS011;29809;52.432;4.780;2023-02-10T03:07:49;6.75;;;1.58;;
44145;SDS011;29809;52.432;4.780;2023-02-10T03:10:14;2.17;;;1.70;;
44145;SDS011;29809;52.432;4.780;2023-02-10T03:12:39;2.20;;;1.47;;
44145;SDS011;29809;52.432;4.780;2023-02-10T03:15:04;1.83;;;1.30;;
44145;SDS011;29809;52.432;4.780;2023-02-10T03:17:30;4.00;;;1.30;;
44145;SDS011;29809;52.432;4.780;2023-02-10T03:19:55;2.30;;;1.15;;
44145;SDS011;29809;52.432;4.780;2023-02-10T03:22:20;2.83;;;1.40;;
44145;SDS011;29809;52.432;4.780;2023-02-10T03:24:45;2.93;;;1.40;;
44145;SDS011;29809;52.432;4.780;2023-02-10T03:27:11;2.40;;;1.47;;
44145;SDS011;29809;52.432;4.780;2023-02-10T03:29:36;1.97;;;1.23;;
44145;SDS011;29809;52.432;4.780;2023-02-10T03:32:01;2.60;;;1.37;;
44145;SDS011;29809;52.432;4.780;2023-02-10T03:34:28;4.05;;;1.70;;
44145;SDS011;29809;52.432;4.780;2023-02-10T03:36:53;2.05;;;1.15;;
44145;SDS011;29809;52.432;4.780;2023-02-10T03:39:19;2.33;;;1.40;;
44145;SDS011;29809;52.432;4.780;2023-02-10T03:41:44;4.47;;;1.40;;
44145;SDS011;29809;52.432;4.780;2023-02-10T03:44:09;2.50;;;1.40;;
44145;SDS011;29809;52.432;4.780;2023-02-10T03:46:34;3.83;;;1.10;;
44145;SDS011;29809;52.432;4.780;2023-02-10T03:49:02;2.17;;;1.40;;
44145;SDS011;29809;52.432;4.780;2023-02-10T03:51:27;7.53;;;1.30;;
44145;SDS011;29809;52.432;4.780;2023-02-10T03:53:52;4.23;;;1.63;;
44145;SDS011;29809;52.432;4.780;2023-02-10T03:56:17;1.50;;;1.20;;
44145;SDS011;29809;52.432;4.780;2023-02-10T03:58:43;3.33;;;1.27;;
44145;SDS011;29809;52.432;4.780;2023-02-10T04:01:11;2.60;;;1.50;;
44145;SDS011;29809;52.432;4.780;2023-02-10T04:03:38;2.70;;;1.20;;
44145;SDS011;29809;52.432;4.780;2023-02-10T04:06:03;3.57;;;1.47;;
44145;SDS011;29809;52.432;4.780;2023-02-10T04:08:28;13.03;;;2.40;;
44145;SDS011;29809;52.432;4.780;2023-02-10T04:10:53;4.23;;;1.30;;
44145;SDS011;29809;52.432;4.780;2023-02-10T04:13:19;3.00;;;1.50;;
44145;SDS011;29809;52.432;4.780;2023-02-10T04:15:44;3.87;;;1.40;;
44145;SDS011;29809;52.432;4.780;2023-02-10T04:18:10;4.37;;;1.70;;
44145;SDS011;29809;52.432;4.780;2023-02-10T04:20:35;2.20;;;1.20;;
44145;SDS011;29809;52.432;4.780;2023-02-10T04:23:00;2.47;;;1.53;;
44145;SDS011;29809;52.432;4.780;2023-02-10T04:25:25;2.23;;;1.60;;
44145;SDS011;29809;52.432;4.780;2023-02-10T04:27:51;3.07;;;1.73;;
44145;SDS011;29809;52.432;4.780;2023-02-10T04:30:16;2.47;;;1.43;;
44145;SDS011;29809;52.432;4.780;2023-02-10T04:32:41;2.63;;;1.63;;
44145;SDS011;29809;52.432;4.780;2023-02-10T04:35:07;2.57;;;1.13;;
44145;SDS011;29809;52.432;4.780;2023-02-10T04:37:32;1.70;;;1.10;;
44145;SDS011;29809;52.432;4.780;2023-02-10T04:39:57;4.10;;;1.53;;
44145;SDS011;29809;52.432;4.780;2023-02-10T04:42:22;2.50;;;1.47;;
44145;SDS011;29809;52.432;4.780;2023-02-10T04:44:54;2.37;;;1.50;;
44145;SDS011;29809;52.432;4.780;2023-02-10T04:47:20;4.13;;;1.60;;
44145;SDS011;29809;52.432;4.780;2023-02-10T04:49:45;2.27;;;1.50;;
44145;SDS011;29809;52.432;4.780;2023-02-10T04:52:10;3.73;;;1.60;;
44145;SDS011;29809;52.432;4.780;2023-02-10T04:54:35;1.53;;;1.40;;
44145;SDS011;29809;52.432;4.780;2023-02-10T04:57:01;3.83;;;1.70;;
44145;SDS011;29809;52.432;4.780;2023-02-10T04:59:26;2.27;;;1.30;;
44145;SDS011;29809;52.432;4.780;2023-02-10T05:01:51;2.70;;;1.60;;
44145;SDS011;29809;52.432;4.780;2023-02-10T05:04:16;3.03;;;1.73;;
44145;SDS011;29809;52.432;4.780;2023-02-10T05:06:41;2.47;;;1.33;;
44145;SDS011;29809;52.432;4.780;2023-02-10T05:09:07;3.70;;;1.50;;
44145;SDS011;29809;52.432;4.780;2023-02-10T05:11:32;3.30;;;1.73;;
44145;SDS011;29809;52.432;4.780;2023-02-10T05:13:57;4.80;;;2.00;;
44145;SDS011;29809;52.432;4.780;2023-02-10T05:16:24;2.67;;;1.70;;
44145;SDS011;29809;52.432;4.780;2023-02-10T05:18:49;3.33;;;1.70;;
44145;SDS011;29809;52.432;4.780;2023-02-10T05:21:14;4.23;;;1.83;;
44145;SDS011;29809;52.432;4.780;2023-02-10T05:23:39;2.20;;;1.20;;
44145;SDS011;29809;52.432;4.780;2023-02-10T05:26:05;6.47;;;1.60;;
44145;SDS011;29809;52.432;4.780;2023-02-10T05:28:30;3.47;;;1.80;;
44145;SDS011;29809;52.432;4.780;2023-02-10T05:30:55;4.60;;;1.50;;
44145;SDS011;29809;52.432;4.780;2023-02-10T05:33:20;6.27;;;1.77;;
44145;SDS011;29809;52.432;4.780;2023-02-10T05:35:46;6.33;;;2.17;;
44145;SDS011;29809;52.432;4.780;2023-02-10T05:38:11;2.50;;;1.80;;
44145;SDS011;29809;52.432;4.780;2023-02-10T05:40:36;4.80;;;2.10;;
44145;SDS011;29809;52.432;4.780;2023-02-10T05:43:02;3.57;;;1.53;;
44145;SDS011;29809;52.432;4.780;2023-02-10T05:45:27;2.77;;;1.57;;
44145;SDS011;29809;52.432;4.780;2023-02-10T05:47:53;2.17;;;1.37;;
44145;SDS011;29809;52.432;4.780;2023-02-10T05:50:18;4.03;;;1.73;;
44145;SDS011;29809;52.432;4.780;2023-02-10T05:52:43;6.20;;;1.80;;
44145;SDS011;29809;52.432;4.780;2023-02-10T05:55:09;3.53;;;2.00;;
44145;SDS011;29809;52.432;4.780;2023-02-10T05:57:34;2.60;;;1.27;;
44145;SDS011;29809;52.432;4.780;2023-02-10T05:59:59;5.23;;;2.10;;
44145;SDS011;29809;52.432;4.780;2023-02-10T06:02:24;4.50;;;2.00;;
44145;SDS011;29809;52.432;4.780;2023-02-10T06:04:50;2.20;;;1.50;;
44145;SDS011;29809;52.432;4.780;2023-02-10T06:07:15;4.03;;;1.50;;
44145;SDS011;29809;52.432;4.780;2023-02-10T06:09:42;4.13;;;1.50;;
44145;SDS011;29809;52.432;4.780;2023-02-10T06:12:07;12.10;;;3.57;;
44145;SDS011;29809;52.432;4.780;2023-02-10T06:14:32;85.83;;;27.83;;
44145;SDS011;29809;52.432;4.780;2023-02-10T06:16:57;94.37;;;31.40;;
44145;SDS011;29809;52.432;4.780;2023-02-10T06:19:23;79.90;;;25.33;;
44145;SDS011;29809;52.432;4.780;2023-02-10T06:21:49;73.00;;;23.93;;
44145;SDS011;29809;52.432;4.780;2023-02-10T06:24:14;61.90;;;24.80;;
44145;SDS011;29809;52.432;4.780;2023-02-10T06:26:40;56.83;;;21.77;;
44145;SDS011;29809;52.432;4.780;2023-02-10T06:29:05;48.53;;;19.87;;
44145;SDS011;29809;52.432;4.780;2023-02-10T06:31:30;45.83;;;19.40;;
44145;SDS011;29809;52.432;4.780;2023-02-10T06:33:55;46.27;;;18.27;;
44145;SDS011;29809;52.432;4.780;2023-02-10T06:36:21;45.07;;;17.77;;
44145;SDS011;29809;52.432;4.780;2023-02-10T06:38:46;40.83;;;15.83;;
44145;SDS011;29809;52.432;4.780;2023-02-10T06:41:12;31.00;;;14.40;;
44145;SDS011;29809;52.432;4.780;2023-02-10T06:43:38;34.67;;;14.67;;
44145;SDS011;29809;52.432;4.780;2023-02-10T06:46:03;29.50;;;13.20;;
44145;SDS011;29809;52.432;4.780;2023-02-10T06:48:29;29.70;;;13.10;;
44145;SDS011;29809;52.432;4.780;2023-02-10T06:50:54;27.10;;;12.70;;
44145;SDS011;29809;52.432;4.780;2023-02-10T06:53:20;23.60;;;12.03;;
44145;SDS011;29809;52.432;4.780;2023-02-10T06:55:45;24.27;;;11.77;;
44145;SDS011;29809;52.432;4.780;2023-02-10T06:58:10;26.30;;;11.53;;
44145;SDS011;29809;52.432;4.780;2023-02-10T07:00:36;22.53;;;10.33;;
44145;SDS011;29809;52.432;4.780;2023-02-10T07:03:01;17.83;;;9.33;;
44145;SDS011;29809;52.432;4.780;2023-02-10T07:05:27;20.63;;;8.80;;
44145;SDS011;29809;52.432;4.780;2023-02-10T07:07:52;14.83;;;8.37;;
44145;SDS011;29809;52.432;4.780;2023-02-10T07:10:18;15.37;;;8.37;;
44145;SDS011;29809;52.432;4.780;2023-02-10T07:12:44;16.07;;;7.90;;
44145;SDS011;29809;52.432;4.780;2023-02-10T07:15:11;16.17;;;7.70;;
44145;SDS011;29809;52.432;4.780;2023-02-10T07:17:37;14.87;;;7.27;;
44145;SDS011;29809;52.432;4.780;2023-02-10T07:20:03;16.73;;;7.97;;
44145;SDS011;29809;52.432;4.780;2023-02-10T07:22:28;16.10;;;5.40;;
44145;SDS011;29809;52.432;4.780;2023-02-10T07:24:53;12.73;;;5.73;;
44145;SDS011;29809;52.432;4.780;2023-02-10T07:27:18;13.03;;;6.07;;
44145;SDS011;29809;52.432;4.780;2023-02-10T07:29:44;12.57;;;5.63;;
44145;SDS011;29809;52.432;4.780;2023-02-10T07:32:09;14.77;;;5.93;;
44145;SDS011;29809;52.432;4.780;2023-02-10T07:34:34;11.40;;;5.43;;
44145;SDS011;29809;52.432;4.780;2023-02-10T07:37:00;11.00;;;5.00;;
44145;SDS011;29809;52.432;4.780;2023-02-10T07:39:25;12.20;;;5.53;;
44145;SDS011;29809;52.432;4.780;2023-02-10T07:41:51;10.87;;;4.97;;
44145;SDS011;29809;52.432;4.780;2023-02-10T07:44:16;9.53;;;5.27;;
44145;SDS011;29809;52.432;4.780;2023-02-10T07:46:42;10.87;;;5.30;;
44145;SDS011;29809;52.432;4.780;2023-02-10T07:49:07;8.70;;;4.40;;
44145;SDS011;29809;52.432;4.780;2023-02-10T07:51:32;7.00;;;4.97;;
44145;SDS011;29809;52.432;4.780;2023-02-10T07:53:58;13.30;;;5.73;;
44145;SDS011;29809;52.432;4.780;2023-02-10T07:56:23;7.60;;;4.87;;
44145;SDS011;29809;52.432;4.780;2023-02-10T07:58:48;12.57;;;4.57;;
44145;SDS011;29809;52.432;4.780;2023-02-10T08:01:13;9.67;;;5.33;;
44145;SDS011;29809;52.432;4.780;2023-02-10T08:03:39;9.47;;;4.83;;
44145;SDS011;29809;52.432;4.780;2023-02-10T08:06:04;8.43;;;5.20;;
44145;SDS011;29809;52.432;4.780;2023-02-10T08:08:30;9.80;;;4.90;;
44145;SDS011;29809;52.432;4.780;2023-02-10T08:10:55;7.97;;;4.00;;
44145;SDS011;29809;52.432;4.780;2023-02-10T08:13:20;7.87;;;4.47;;
44145;SDS011;29809;52.432;4.780;2023-02-10T08:15:46;10.93;;;4.90;;
44145;SDS011;29809;52.432;4.780;2023-02-10T08:18:11;7.63;;;4.67;;
44145;SDS011;29809;52.432;4.780;2023-02-10T08:20:36;8.57;;;4.67;;
44145;SDS011;29809;52.432;4.780;2023-02-10T08:23:02;11.23;;;5.27;;
44145;SDS011;29809;52.432;4.780;2023-02-10T08:25:27;7.43;;;4.67;;
44145;SDS011;29809;52.432;4.780;2023-02-10T08:27:52;8.80;;;5.17;;
44145;SDS011;29809;52.432;4.780;2023-02-10T08:30:18;9.40;;;4.77;;
44145;SDS011;29809;52.432;4.780;2023-02-10T08:32:43;9.07;;;4.43;;
44145;SDS011;29809;52.432;4.780;2023-02-10T08:35:09;7.17;;;4.63;;
44145;SDS011;29809;52.432;4.780;2023-02-10T08:37:34;6.60;;;5.03;;
44145;SDS011;29809;52.432;4.780;2023-02-10T08:40:00;8.73;;;4.80;;
44145;SDS011;29809;52.432;4.780;2023-02-10T08:42:27;9.90;;;5.03;;
44145;SDS011;29809;52.432;4.780;2023-02-10T08:44:52;8.67;;;5.60;;
44145;SDS011;29809;52.432;4.780;2023-02-10T08:47:18;6.47;;;4.60;;
44145;SDS011;29809;52.432;4.780;2023-02-10T08:49:43;8.57;;;5.57;;
44145;SDS011;29809;52.432;4.780;2023-02-10T08:52:08;8.83;;;5.37;;
44145;SDS011;29809;52.432;4.780;2023-02-10T08:54:33;8.17;;;5.77;;
44145;SDS011;29809;52.432;4.780;2023-02-10T08:56:59;6.77;;;5.10;;
44145;SDS011;29809;52.432;4.780;2023-02-10T08:59:25;8.73;;;5.23;;
44145;SDS011;29809;52.432;4.780;2023-02-10T09:01:50;8.27;;;5.27;;
44145;SDS011;29809;52.432;4.780;2023-02-10T09:04:15;9.30;;;5.60;;
44145;SDS011;29809;52.432;4.780;2023-02-10T09:06:41;10.37;;;5.40;;
44145;SDS011;29809;52.432;4.780;2023-02-10T09:09:18;6.87;;;5.00;;
44145;SDS011;29809;52.432;4.780;2023-02-10T09:11:49;8.97;;;5.40;;
44145;SDS011;29809;52.432;4.780;2023-02-10T09:14:15;8.30;;;4.93;;
44145;SDS011;29809;52.432;4.780;2023-02-10T09:16:40;8.13;;;4.83;;
44145;SDS011;29809;52.432;4.780;2023-02-10T09:19:05;9.00;;;5.33;;
44145;SDS011;29809;52.432;4.780;2023-02-10T09:21:30;10.47;;;4.93;;
44145;SDS011;29809;52.432;4.780;2023-02-10T09:23:56;7.10;;;4.50;;
44145;SDS011;29809;52.432;4.780;2023-02-10T09:26:21;9.83;;;5.90;;
44145;SDS011;29809;52.432;4.780;2023-02-10T09:28:47;10.63;;;5.20;;
44145;SDS011;29809;52.432;4.780;2023-02-10T09:31:13;10.87;;;4.87;;
44145;SDS011;29809;52.432;4.780;2023-02-10T09:33:40;7.87;;;4.90;;
44145;SDS011;29809;52.432;4.780;2023-02-10T09:36:06;6.90;;;4.10;;
44145;SDS011;29809;52.432;4.780;2023-02-10T09:38:32;7.30;;;4.70;;
44145;SDS011;29809;52.432;4.780;2023-02-10T09:46:26;8.43;;;4.70;;
44145;SDS011;29809;52.432;4.780;2023-02-10T09:53:53;7.43;;;4.57;;
44145;SDS011;29809;52.432;4.780;2023-02-10T09:56:19;8.33;;;5.33;;
44145;SDS011;29809;52.432;4.780;2023-02-10T09:58:46;6.90;;;4.17;;
44145;SDS011;29809;52.432;4.780;2023-02-10T10:04:08;6.73;;;4.53;;
44145;SDS011;29809;52.432;4.780;2023-02-10T10:06:36;8.27;;;5.17;;
44145;SDS011;29809;52.432;4.780;2023-02-10T10:13:58;6.67;;;4.20;;
44145;SDS011;29809;52.432;4.780;2023-02-10T10:16:39;6.87;;;4.27;;
44145;SDS011;29809;52.432;4.780;2023-02-10T10:19:31;6.40;;;4.07;;
44145;SDS011;29809;52.432;4.780;2023-02-10T10:32:23;8.27;;;3.97;;
44145;SDS011;29809;52.432;4.780;2023-02-10T10:34:47;6.63;;;3.90;;
44145;SDS011;29809;52.432;4.780;2023-02-10T10:37:15;7.40;;;4.33;;
44145;SDS011;29809;52.432;4.780;2023-02-10T10:39:42;10.30;;;4.63;;
44145;SDS011;29809;52.432;4.780;2023-02-10T10:45:07;6.93;;;4.10;;
44145;SDS011;29809;52.432;4.780;2023-02-10T10:47:46;7.40;;;3.90;;
44145;SDS011;29809;52.432;4.780;2023-02-10T10:50:17;8.47;;;3.87;;
44145;SDS011;29809;52.432;4.780;2023-02-10T10:52:43;8.03;;;4.50;;
44145;SDS011;29809;52.432;4.780;2023-02-10T10:55:12;6.45;;;3.90;;
44145;SDS011;29809;52.432;4.780;2023-02-10T10:57:39;8.70;;;4.57;;
44145;SDS011;29809;52.432;4.780;2023-02-10T11:00:21;7.83;;;3.93;;
44145;SDS011;29809;52.432;4.780;2023-02-10T11:02:54;7.93;;;3.93;;
44145;SDS011;29809;52.432;4.780;2023-02-10T11:05:20;7.47;;;4.10;;
44145;SDS011;29809;52.432;4.780;2023-02-10T11:07:50;7.13;;;4.03;;
44145;SDS011;29809;52.432;4.780;2023-02-10T11:10:23;10.03;;;4.10;;
44145;SDS011;29809;52.432;4.780;2023-02-10T11:12:49;5.63;;;3.73;;
44145;SDS011;29809;52.432;4.780;2023-02-10T11:17:55;5.90;;;3.70;;
44145;SDS011;29809;52.432;4.780;2023-02-10T11:22:54;8.30;;;3.80;;
44145;SDS011;29809;52.432;4.780;2023-02-10T11:25:33;4.57;;;3.23;;
44145;SDS011;29809;52.432;4.780;2023-02-10T11:27:59;8.80;;;4.17;;
44145;SDS011;29809;52.432;4.780;2023-02-10T11:30:35;6.53;;;3.23;;
44145;SDS011;29809;52.432;4.780;2023-02-10T11:33:01;5.30;;;3.50;;
44145;SDS011;29809;52.432;4.780;2023-02-10T11:35:27;7.77;;;3.27;;
44145;SDS011;29809;52.432;4.780;2023-02-10T11:37:54;9.50;;;3.33;;
44145;SDS011;29809;52.432;4.780;2023-02-10T11:40:24;8.00;;;3.60;;
44145;SDS011;29809;52.432;4.780;2023-02-10T11:42:52;4.73;;;2.97;;
44145;SDS011;29809;52.432;4.780;2023-02-10T11:45:22;7.10;;;3.33;;
44145;SDS011;29809;52.432;4.780;2023-02-10T11:47:47;7.32;;;2.95;;
44145;SDS011;29809;52.432;4.780;2023-02-10T11:50:23;4.63;;;2.60;;
44145;SDS011;29809;52.432;4.780;2023-02-10T11:52:49;5.30;;;2.63;;
44145;SDS011;29809;52.432;4.780;2023-02-10T11:55:14;7.73;;;2.60;;
44145;SDS011;29809;52.432;4.780;2023-02-10T12:08:02;8.83;;;2.60;;
44145;SDS011;29809;52.432;4.780;2023-02-10T12:13:00;8.50;;;3.00;;
44145;SDS011;29809;52.432;4.780;2023-02-10T12:41:16;8.68;;;2.40;;
44145;SDS011;29809;52.432;4.780;2023-02-10T12:46:28;8.70;;;3.20;;
44145;SDS011;29809;52.432;4.780;2023-02-10T12:52:23;10.05;;;3.25;;
44145;SDS011;29809;52.432;4.780;2023-02-10T12:54:23;7.87;;;3.00;;
44145;SDS011;29809;52.432;4.780;2023-02-10T12:56:51;8.97;;;3.07;;
44145;SDS011;29809;52.432;4.780;2023-02-10T13:01:43;6.87;;;3.03;;
44145;SDS011;29809;52.432;4.780;2023-02-10T13:06:36;10.43;;;2.97;;
44145;SDS011;29809;52.432;4.780;2023-02-10T13:09:09;7.63;;;3.28;;
44145;SDS011;29809;52.432;4.780;2023-02-10T13:11:51;8.07;;;3.07;;
44145;SDS011;29809;52.432;4.780;2023-02-10T13:14:22;6.77;;;2.97;;
44145;SDS011;29809;52.432;4.780;2023-02-10T13:16:56;8.47;;;3.30;;
44145;SDS011;29809;52.432;4.780;2023-02-10T13:24:47;6.87;;;2.93;;
44145;SDS011;29809;52.432;4.780;2023-02-10T13:27:20;6.63;;;3.43;;
44145;SDS011;29809;52.432;4.780;2023-02-10T13:32:29;10.20;;;3.73;;
44145;SDS011;29809;52.432;4.780;2023-02-10T13:34:58;6.93;;;3.50;;
44145;SDS011;29809;52.432;4.780;2023-02-10T13:37:35;6.67;;;3.60;;
44145;SDS011;29809;52.432;4.780;2023-02-10T13:40:45;7.97;;;3.73;;
44145;SDS011;29809;52.432;4.780;2023-02-10T13:42:54;6.03;;;3.67;;
44145;SDS011;29809;52.432;4.780;2023-02-10T13:45:22;7.43;;;3.63;;
44145;SDS011;29809;52.432;4.780;2023-02-10T13:47:49;5.97;;;3.73;;
44145;SDS011;29809;52.432;4.780;2023-02-10T13:53:00;5.07;;;3.70;;
44145;SDS011;29809;52.432;4.780;2023-02-10T14:00:28;9.40;;;4.57;;
44145;SDS011;29809;52.432;4.780;2023-02-10T14:02:58;7.57;;;3.83;;
44145;SDS011;29809;52.432;4.780;2023-02-10T14:05:26;8.03;;;3.80;;
44145;SDS011;29809;52.432;4.780;2023-02-10T14:07:52;10.17;;;4.53;;
44145;SDS011;29809;52.432;4.780;2023-02-10T14:15:21;9.07;;;4.03;;
44145;SDS011;29809;52.432;4.780;2023-02-10T14:20:38;9.37;;;4.10;;
44145;SDS011;29809;52.432;4.780;2023-02-10T14:23:15;8.80;;;4.63;;
44145;SDS011;29809;52.432;4.780;2023-02-10T14:25:43;6.93;;;3.90;;
44145;SDS011;29809;52.432;4.780;2023-02-10T14:28:23;7.57;;;3.73;;
44145;SDS011;29809;52.432;4.780;2023-02-10T14:30:52;7.57;;;3.63;;
44145;SDS011;29809;52.432;4.780;2023-02-10T14:33:27;6.43;;;3.53;;
44145;SDS011;29809;52.432;4.780;2023-02-10T14:35:54;9.00;;;4.68;;
44145;SDS011;29809;52.432;4.780;2023-02-10T14:38:21;8.40;;;4.03;;
44145;SDS011;29809;52.432;4.780;2023-02-10T14:40:46;9.47;;;4.27;;
44145;SDS011;29809;52.432;4.780;2023-02-10T14:43:12;7.83;;;3.60;;
44145;SDS011;29809;52.432;4.780;2023-02-10T14:45:38;9.13;;;4.07;;
44145;SDS011;29809;52.432;4.780;2023-02-10T14:48:06;6.55;;;4.07;;
44145;SDS011;29809;52.432;4.780;2023-02-10T14:50:35;5.53;;;3.73;;
44145;SDS011;29809;52.432;4.780;2023-02-10T14:53:01;8.97;;;4.47;;
44145;SDS011;29809;52.432;4.780;2023-02-10T14:55:28;7.90;;;4.17;;
44145;SDS011;29809;52.432;4.780;2023-02-10T14:58:16;8.23;;;3.80;;
44145;SDS011;29809;52.432;4.780;2023-02-10T15:00:52;7.90;;;4.10;;
44145;SDS011;29809;52.432;4.780;2023-02-10T15:03:18;7.80;;;3.93;;
44145;SDS011;29809;52.432;4.780;2023-02-10T15:05:45;9.02;;;4.07;;
44145;SDS011;29809;52.432;4.780;2023-02-10T15:08:14;8.20;;;4.10;;
44145;SDS011;29809;52.432;4.780;2023-02-10T15:10:42;7.87;;;3.90;;
44145;SDS011;29809;52.432;4.780;2023-02-10T15:13:08;10.20;;;4.10;;
44145;SDS011;29809;52.432;4.780;2023-02-10T15:15:34;7.00;;;3.95;;
44145;SDS011;29809;52.432;4.780;2023-02-10T15:18:02;9.77;;;4.33;;
44145;SDS011;29809;52.432;4.780;2023-02-10T15:20:30;6.40;;;4.00;;
44145;SDS011;29809;52.432;4.780;2023-02-10T15:33:20;9.00;;;4.20;;
44145;SDS011;29809;52.432;4.780;2023-02-10T15:35:55;8.15;;;4.60;;
44145;SDS011;29809;52.432;4.780;2023-02-10T15:38:20;6.50;;;4.00;;
44145;SDS011;29809;52.432;4.780;2023-02-10T15:40:56;7.97;;;4.63;;
44145;SDS011;29809;52.432;4.780;2023-02-10T15:43:23;8.07;;;4.50;;
44145;SDS011;29809;52.432;4.780;2023-02-10T15:45:49;11.80;;;5.05;;
44145;SDS011;29809;52.432;4.780;2023-02-10T15:48:21;11.43;;;5.47;;
44145;SDS011;29809;52.432;4.780;2023-02-10T15:50:46;6.23;;;4.27;;
44145;SDS011;29809;52.432;4.780;2023-02-10T15:53:13;6.53;;;4.43;;
44145;SDS011;29809;52.432;4.780;2023-02-10T15:55:42;8.90;;;5.47;;
44145;SDS011;29809;52.432;4.780;2023-02-10T15:58:08;8.43;;;4.80;;
44145;SDS011;29809;52.432;4.780;2023-02-10T16:00:36;10.97;;;5.00;;
44145;SDS011;29809;52.432;4.780;2023-02-10T16:03:02;10.97;;;5.63;;
44145;SDS011;29809;52.432;4.780;2023-02-10T16:05:27;8.07;;;5.60;;
44145;SDS011;29809;52.432;4.780;2023-02-10T16:08:00;12.10;;;5.77;;
44145;SDS011;29809;52.432;4.780;2023-02-10T16:10:29;10.03;;;6.50;;
44145;SDS011;29809;52.432;4.780;2023-02-10T16:12:54;12.53;;;6.47;;
44145;SDS011;29809;52.432;4.780;2023-02-10T16:15:20;11.80;;;7.13;;
44145;SDS011;29809;52.432;4.780;2023-02-10T16:17:47;10.73;;;6.83;;
44145;SDS011;29809;52.432;4.780;2023-02-10T16:20:24;11.37;;;6.77;;
44145;SDS011;29809;52.432;4.780;2023-02-10T16:22:49;11.87;;;6.87;;
44145;SDS011;29809;52.432;4.780;2023-02-10T16:25:15;13.87;;;7.23;;
44145;SDS011;29809;52.432;4.780;2023-02-10T16:27:41;13.60;;;7.30;;
44145;SDS011;29809;52.432;4.780;2023-02-10T16:30:07;22.55;;;7.20;;
44145;SDS011;29809;52.432;4.780;2023-02-10T16:32:37;14.83;;;7.73;;
44145;SDS011;29809;52.432;4.780;2023-02-10T16:35:02;13.07;;;8.43;;
44145;SDS011;29809;52.432;4.780;2023-02-10T16:37:28;15.97;;;8.53;;
44145;SDS011;29809;52.432;4.780;2023-02-10T16:39:53;15.30;;;8.40;;
44145;SDS011;29809;52.432;4.780;2023-02-10T16:42:18;18.43;;;8.87;;
44145;SDS011;29809;52.432;4.780;2023-02-10T16:44:44;13.97;;;9.77;;
44145;SDS011;29809;52.432;4.780;2023-02-10T16:47:12;16.23;;;10.07;;
44145;SDS011;29809;52.432;4.780;2023-02-10T16:49:38;17.07;;;10.57;;
44145;SDS011;29809;52.432;4.780;2023-02-10T16:52:04;17.10;;;10.73;;
44145;SDS011;29809;52.432;4.780;2023-02-10T16:54:29;18.37;;;10.83;;
44145;SDS011;29809;52.432;4.780;2023-02-10T16:56:54;16.73;;;10.70;;
44145;SDS011;29809;52.432;4.780;2023-02-10T16:59:19;20.63;;;11.05;;
44145;SDS011;29809;52.432;4.780;2023-02-10T17:01:45;16.30;;;10.10;;
44145;SDS011;29809;52.432;4.780;2023-02-10T17:04:10;18.63;;;10.83;;
44145;SDS011;29809;52.432;4.780;2023-02-10T17:06:39;14.73;;;10.53;;